Watkins, CO

2:25 AM MST on March 04, 2015 (GMT -0700)
Front Range | Change Station
CLOSE
Current Station
Airport
Location: Denver,
Elevation: 5512 ft
Nearby Weather Stations

Elev 5512 ft 39.79 °N, 104.54 °W | Updated 10 minutes ago

Light Snow
Light Snow
14 °F
Feels Like 0 °F
N
13
Wind Variable Wind from NE

Today
High -- | Low -- °F
--% Chance of Precip.
Yesterday
High -- | Low -- °F
Precip. -- in
6:27 AM 5:53 PM
Waxing Gibbous, 98% visible
Pressure 29.98 in
Visibility 3.0 miles
Clouds Mostly Cloudy 500 ft
Mostly Cloudy 1000 ft
Overcast 1400 ft
Windchill 0 °F
Dew Point 12 °F
Humidity 93%
Rainfall 0.00 in
Snow Depth Not available.
UV 0 out of 12
Pollen .70 out of 12
Air Quality Not available.
Flu Activity Not available.
METAR KFTG 040915Z AUTO 04011KT 3SM -SN BKN005 BKN010 OVC014 M10/M11 A2998 RMK AO2

More Conditions Fewer Conditions

Pressure 29.98 in
Visibility 3.0 miles
Clouds Mostly Cloudy 500 ft
Mostly Cloudy 1000 ft
Overcast 1400 ft
Windchill 0 °F
Dew Point 12 °F
Humidity 93%
Rainfall 0.00 in
Snow Depth Not available.
UV 0 out of 12
Pollen .70 out of 12
Air Quality Not available.
Flu Activity Not available.
METAR KFTG 040915Z AUTO 04011KT 3SM -SN BKN005 BKN010 OVC014 M10/M11 A2998 RMK AO2

More Conditions Fewer Conditions

10-Day Weather Forecast

Almanac

Astronomy

Mar. 04, 2015 Rise Set
Actual Time
Civil Twilight
Nautical Twilight
Astronomical Twilight
Moon
Length of Visible Light
Length of Day
Tomorrow will be .
, % of the Moon is Illuminated

Today's Extremes

State Highs State Lows

Community

WunderPhotos

Upload Photos

1,802,419 photos uploaded!

WunderBlogs® & News

Nearby

Air Quality

  Air Quality AQ Index Pollutant
Not available.

Snow Depth

Station Depth Elevation

Earthquake Activity

City Distance Mag. Time & Date
Minimum magnitude displayed is 2.5.

Coastal Water Temperatures

Place Temperature

Nearby Weather Stations